createdAt,value
2019-04-03T00:01:41.374Z,5.07
2019-04-03T00:04:47.088Z,4.80
2019-04-03T00:07:52.760Z,5.33
2019-04-03T00:10:58.506Z,5.17
2019-04-03T00:14:04.404Z,5.53
2019-04-03T00:17:10.100Z,5.00
2019-04-03T00:20:18.001Z,4.37
2019-04-03T00:23:23.425Z,5.30
2019-04-03T00:26:30.786Z,5.20
2019-04-03T00:29:36.517Z,4.97
2019-04-03T00:32:42.242Z,5.00
2019-04-03T00:35:48.035Z,5.17
2019-04-03T00:38:54.274Z,5.33
2019-04-03T00:42:00.519Z,5.47
2019-04-03T00:45:07.339Z,5.70
2019-04-03T00:48:13.097Z,5.03
2019-04-03T00:51:18.858Z,5.13
2019-04-03T00:54:24.764Z,5.17
2019-04-03T00:57:31.997Z,5.40
2019-04-03T01:00:37.655Z,4.97
2019-04-03T01:03:43.699Z,5.10
2019-04-03T01:06:49.495Z,5.50
2019-04-03T01:09:56.249Z,5.33
2019-04-03T01:13:02.244Z,5.47
2019-04-03T01:16:08.236Z,5.20
2019-04-03T01:19:13.953Z,5.17
2019-04-03T01:22:19.673Z,5.53
2019-04-03T01:25:25.562Z,4.93
2019-04-03T01:28:31.309Z,4.93
2019-04-03T01:31:37.223Z,5.80
2019-04-03T01:34:42.954Z,5.50
2019-04-03T01:37:50.171Z,5.43
2019-04-03T01:40:55.970Z,5.50
2019-04-03T01:44:01.626Z,5.57
2019-04-03T01:47:07.335Z,5.33
2019-04-03T01:50:13.265Z,5.43
2019-04-03T01:53:18.986Z,5.90
2019-04-03T01:56:24.828Z,5.37
2019-04-03T01:59:30.601Z,5.83
2019-04-03T02:02:38.196Z,5.80
2019-04-03T02:05:44.151Z,5.40
2019-04-03T02:08:49.987Z,5.87
2019-04-03T02:11:55.853Z,5.70
2019-04-03T02:15:01.977Z,5.50
2019-04-03T02:18:08.119Z,6.07
2019-04-03T02:21:13.835Z,5.13
2019-04-03T02:24:19.601Z,5.60
2019-04-03T02:27:25.327Z,6.37
2019-04-03T02:30:31.000Z,5.87
2019-04-03T02:33:36.688Z,6.57
2019-04-03T02:36:44.264Z,5.60
2019-04-03T02:39:49.762Z,5.10
2019-04-03T02:42:55.703Z,6.43
2019-04-03T02:46:01.390Z,6.17
2019-04-03T02:49:10.228Z,5.83
2019-04-03T02:52:14.800Z,5.47
2019-04-03T02:55:20.488Z,5.43
2019-04-03T02:58:26.256Z,5.83
2019-04-03T03:01:31.935Z,5.73
2019-04-03T03:04:37.714Z,6.87
2019-04-03T03:07:44.670Z,8.13
2019-04-03T03:10:51.828Z,6.53
2019-04-03T03:13:58.062Z,6.63
2019-04-03T03:17:04.474Z,5.97
2019-04-03T03:20:11.016Z,6.03
2019-04-03T03:23:16.906Z,6.80
2019-04-03T03:26:24.274Z,6.23
2019-04-03T03:29:30.410Z,6.00
2019-04-03T03:32:37.614Z,6.63
2019-04-03T03:35:46.715Z,6.53
2019-04-03T03:38:51.717Z,6.17
2019-04-03T03:41:58.784Z,6.50
2019-04-03T03:45:05.997Z,6.57
2019-04-03T03:48:12.162Z,7.90
2019-04-03T03:51:19.728Z,7.00
2019-04-03T03:54:26.527Z,6.93
2019-04-03T03:57:33.518Z,6.80
2019-04-03T04:00:39.803Z,7.27
2019-04-03T04:03:46.235Z,7.00
2019-04-03T04:06:52.040Z,6.93
2019-04-03T04:09:57.881Z,7.20
2019-04-03T04:13:03.778Z,7.13
2019-04-03T04:16:09.562Z,7.20
2019-04-03T04:19:15.664Z,7.43
2019-04-03T04:22:24.488Z,7.87
2019-04-03T04:25:31.049Z,9.50
2019-04-03T04:28:39.528Z,10.17
2019-04-03T04:31:44.520Z,8.97
2019-04-03T04:34:51.442Z,8.80
2019-04-03T04:37:57.167Z,9.40
2019-04-03T04:41:03.885Z,9.17
2019-04-03T04:44:10.335Z,8.80
2019-04-03T04:47:16.103Z,8.90
2019-04-03T04:50:25.771Z,9.03
2019-04-03T04:53:31.818Z,8.60
2019-04-03T04:56:38.323Z,9.20
2019-04-03T04:59:45.168Z,8.93
2019-04-03T05:02:52.489Z,10.27
2019-04-03T05:05:58.645Z,10.40
2019-04-03T05:09:07.287Z,8.07
2019-04-03T05:12:13.296Z,8.17
2019-04-03T05:15:21.695Z,9.00
2019-04-03T05:18:28.608Z,8.53
2019-04-03T05:21:34.087Z,9.03
2019-04-03T05:24:40.130Z,8.93
2019-04-03T05:27:45.856Z,9.87
2019-04-03T05:30:51.607Z,10.67
2019-04-03T05:33:57.556Z,10.50
2019-04-03T05:37:03.288Z,10.70
2019-04-03T05:40:09.046Z,10.70
2019-04-03T05:43:14.931Z,10.50
2019-04-03T05:46:20.555Z,11.30
2019-04-03T05:49:26.243Z,10.00
2019-04-03T05:52:33.170Z,10.53
2019-04-03T05:55:41.081Z,10.83
2019-04-03T05:58:55.705Z,11.60
2019-04-03T06:01:54.254Z,10.43
2019-04-03T06:05:00.849Z,10.03
2019-04-03T06:08:06.572Z,10.43
2019-04-03T06:11:12.296Z,10.40
2019-04-03T06:14:18.759Z,10.17
2019-04-03T06:17:25.578Z,10.33
2019-04-03T06:20:31.293Z,8.33
2019-04-03T06:23:37.101Z,9.07
2019-04-03T06:26:44.588Z,9.53
2019-04-03T06:29:53.445Z,8.23
2019-04-03T06:33:00.920Z,9.20
2019-04-03T06:36:06.405Z,8.40
2019-04-03T06:39:12.156Z,7.90
2019-04-03T06:42:17.974Z,8.43
2019-04-03T06:45:25.461Z,8.60
2019-04-03T06:48:31.113Z,8.60
2019-04-03T06:51:36.914Z,7.27
2019-04-03T06:54:44.254Z,7.93
2019-04-03T06:57:50.170Z,8.87
2019-04-03T07:00:55.919Z,8.63
2019-04-03T07:04:01.697Z,7.47
2019-04-03T07:07:07.387Z,7.60
2019-04-03T07:10:24.068Z,7.87
2019-04-03T07:13:21.086Z,7.87
2019-04-03T07:16:28.560Z,7.77
2019-04-03T07:19:34.532Z,7.43
2019-04-03T07:22:40.344Z,8.10
2019-04-03T07:25:46.062Z,7.60
2019-04-03T07:28:51.717Z,7.80
2019-04-03T07:31:57.517Z,7.60
2019-04-03T07:35:08.951Z,6.87
2019-04-03T07:38:10.882Z,5.67
2019-04-03T07:41:16.594Z,7.47
2019-04-03T07:44:22.306Z,7.43
2019-04-03T07:47:29.325Z,7.03
2019-04-03T07:50:36.956Z,8.17
2019-04-03T07:53:42.478Z,8.07
2019-04-03T07:56:48.227Z,8.23
2019-04-03T07:59:54.154Z,7.77
2019-04-03T08:03:00.205Z,8.20
2019-04-03T08:06:06.230Z,8.07
2019-04-03T08:09:11.878Z,7.33
2019-04-03T08:12:18.487Z,5.93
2019-04-03T08:15:24.163Z,9.60
2019-04-03T08:18:29.944Z,5.20
2019-04-03T08:21:35.647Z,5.20
2019-04-03T08:24:41.373Z,6.27
2019-04-03T08:27:47.233Z,4.07
2019-04-03T08:30:52.962Z,4.40
2019-04-03T08:33:59.561Z,4.70
2019-04-03T08:37:09.609Z,4.30
2019-04-03T08:40:14.730Z,4.70
2019-04-03T08:43:20.454Z,5.77
2019-04-03T08:46:26.273Z,5.83
2019-04-03T08:49:31.938Z,4.03
2019-04-03T08:52:37.801Z,4.97
2019-04-03T08:55:45.371Z,4.40
2019-04-03T08:58:51.079Z,5.13
2019-04-03T09:01:57.187Z,5.00
2019-04-03T09:05:03.313Z,3.90
2019-04-03T09:08:09.082Z,4.20
2019-04-03T09:11:14.750Z,5.00
2019-04-03T09:14:20.463Z,4.67
2019-04-03T09:17:26.199Z,4.07
2019-04-03T09:20:34.693Z,3.73
2019-04-03T09:23:39.267Z,4.07
2019-04-03T09:26:45.282Z,4.50
2019-04-03T09:29:51.017Z,4.33
2019-04-03T09:32:59.477Z,3.60
2019-04-03T09:36:05.478Z,4.10
2019-04-03T09:39:13.934Z,4.40
2019-04-03T09:42:21.248Z,3.87
2019-04-03T09:45:28.622Z,4.07
2019-04-03T09:48:36.783Z,3.83
2019-04-03T09:51:43.344Z,4.00
2019-04-03T09:54:49.052Z,4.13
2019-04-03T09:57:54.753Z,4.00
2019-04-03T10:01:00.737Z,3.97
2019-04-03T10:04:06.844Z,4.23
2019-04-03T10:07:12.698Z,4.03
2019-04-03T10:10:18.767Z,4.37
2019-04-03T10:13:25.882Z,4.23
2019-04-03T10:16:33.247Z,3.77
2019-04-03T10:19:39.504Z,4.23
2019-04-03T10:22:45.332Z,3.80
2019-04-03T10:25:53.086Z,3.63
2019-04-03T10:28:58.579Z,4.03
2019-04-03T10:32:04.389Z,4.57
2019-04-03T10:35:10.759Z,4.30
2019-04-03T10:38:18.306Z,4.40
2019-04-03T10:41:24.115Z,4.07
2019-04-03T10:44:29.893Z,4.30
2019-04-03T10:47:42.686Z,4.07
2019-04-03T10:50:43.077Z,4.20
2019-04-03T10:53:50.996Z,4.23
2019-04-03T10:56:56.436Z,4.17
2019-04-03T11:00:02.440Z,4.53
2019-04-03T11:03:08.807Z,4.47
2019-04-03T11:06:14.829Z,3.60
2019-04-03T11:09:21.120Z,4.00
2019-04-03T11:12:26.944Z,3.80
2019-04-03T11:15:32.704Z,4.97
2019-04-03T11:18:38.371Z,3.80
2019-04-03T11:21:45.065Z,3.97
2019-04-03T11:24:51.378Z,3.93
2019-04-03T11:27:57.338Z,4.40
2019-04-03T11:31:03.202Z,4.57
2019-04-03T11:34:09.327Z,4.47
2019-04-03T11:37:15.142Z,7.63
2019-04-03T11:40:24.208Z,4.47
2019-04-03T11:43:31.047Z,4.10
2019-04-03T11:46:36.484Z,4.63
2019-04-03T11:49:42.297Z,4.73
2019-04-03T11:52:48.094Z,4.40
2019-04-03T11:55:54.256Z,4.03
2019-04-03T11:59:00.113Z,4.43
2019-04-03T12:02:07.861Z,4.50
2019-04-03T12:05:16.224Z,4.87
2019-04-03T12:08:21.797Z,5.00
2019-04-03T12:11:27.576Z,4.73
2019-04-03T12:14:33.262Z,5.00
2019-04-03T12:17:39.122Z,5.80
2019-04-03T12:20:45.958Z,5.27
2019-04-03T12:23:52.255Z,4.50
2019-04-03T12:26:57.960Z,4.50
2019-04-03T12:30:03.667Z,5.00
2019-04-03T12:33:09.351Z,5.13
2019-04-03T12:36:15.161Z,4.97
2019-04-03T12:39:28.063Z,5.37
2019-04-03T12:42:33.963Z,5.30
2019-04-03T12:45:39.627Z,4.77
2019-04-03T12:48:45.560Z,5.00
2019-04-03T12:51:51.327Z,5.70
2019-04-03T12:54:57.452Z,6.57
2019-04-03T12:58:04.709Z,5.83
2019-04-03T13:01:11.668Z,5.57
2019-04-03T13:04:18.517Z,5.73
2019-04-03T13:07:24.358Z,6.77
2019-04-03T13:10:41.354Z,6.30
2019-04-03T13:13:40.248Z,6.07
2019-04-03T13:16:47.031Z,6.20
2019-04-03T13:19:53.396Z,5.20
2019-04-03T13:22:59.407Z,5.10
2019-04-03T13:26:06.579Z,5.67
2019-04-03T13:29:12.381Z,5.53
2019-04-03T13:32:18.649Z,5.23
2019-04-03T13:35:24.556Z,5.00
2019-04-03T13:38:30.329Z,5.00
2019-04-03T13:41:36.006Z,5.40
2019-04-03T13:44:41.900Z,4.57
2019-04-03T13:47:47.753Z,4.60
2019-04-03T13:50:54.819Z,4.23
2019-04-03T13:54:01.134Z,4.27
2019-04-03T13:57:06.837Z,4.17
2019-04-03T14:00:20.682Z,4.10
2019-04-03T14:03:21.102Z,4.47
2019-04-03T14:06:26.844Z,4.53
2019-04-03T14:09:32.848Z,3.87
2019-04-03T14:12:43.286Z,3.97
2019-04-03T14:15:46.128Z,3.77
2019-04-03T14:18:52.161Z,4.50
2019-04-03T14:21:59.989Z,3.90
2019-04-03T14:25:18.081Z,4.67
2019-04-03T14:28:12.966Z,4.00
2019-04-03T14:31:19.138Z,4.63
2019-04-03T14:34:24.893Z,6.87
2019-04-03T14:37:30.591Z,4.07
2019-04-03T14:40:36.325Z,4.00
2019-04-03T14:43:42.760Z,3.80
2019-04-03T14:46:50.706Z,3.97
2019-04-03T14:49:56.497Z,3.40
2019-04-03T14:53:04.919Z,3.60
2019-04-03T14:56:10.651Z,3.37
2019-04-03T14:59:16.818Z,3.57
2019-04-03T15:02:23.867Z,3.67
2019-04-03T15:05:29.989Z,4.80
2019-04-03T15:08:37.039Z,4.13
2019-04-03T15:11:43.784Z,3.47
2019-04-03T15:14:49.505Z,3.77
2019-04-03T15:17:55.222Z,3.50
2019-04-03T15:21:01.039Z,3.90
2019-04-03T15:24:06.869Z,3.80
2019-04-03T15:27:12.537Z,3.80
2019-04-03T15:30:19.323Z,5.00
2019-04-03T15:33:25.169Z,32.20
2019-04-03T15:36:31.329Z,4.10
2019-04-03T15:39:37.291Z,3.77
2019-04-03T15:42:43.548Z,4.37
2019-04-03T15:45:49.333Z,4.17
2019-04-03T15:48:55.340Z,4.27
2019-04-03T15:52:01.553Z,3.33
2019-04-03T15:55:09.638Z,4.40
2019-04-03T15:58:15.367Z,3.97
2019-04-03T16:01:21.222Z,4.20
2019-04-03T16:04:29.013Z,4.90
2019-04-03T16:07:35.141Z,5.33
2019-04-03T16:10:40.851Z,5.73
2019-04-03T16:13:47.180Z,4.97
2019-04-03T16:16:54.017Z,4.70
2019-04-03T16:19:59.857Z,7.63
2019-04-03T16:23:05.829Z,20.37
2019-04-03T16:26:12.840Z,6.70
2019-04-03T16:29:18.734Z,5.70
2019-04-03T16:32:27.333Z,6.77
2019-04-03T16:35:32.382Z,5.80
2019-04-03T16:38:38.304Z,7.33
2019-04-03T16:41:45.190Z,13.30
2019-04-03T16:44:51.320Z,9.17
2019-04-03T16:47:56.994Z,10.40
2019-04-03T16:51:03.198Z,9.33
2019-04-03T16:54:11.883Z,7.83
2019-04-03T16:57:16.275Z,9.37
2019-04-03T17:00:22.187Z,9.67
2019-04-03T17:03:31.729Z,9.10
2019-04-03T17:06:35.358Z,10.90
2019-04-03T17:09:41.129Z,24.17
2019-04-03T17:12:49.562Z,7.73
2019-04-03T17:15:55.002Z,7.20
2019-04-03T17:19:00.855Z,6.87
2019-04-03T17:22:07.872Z,6.80
2019-04-03T17:25:15.095Z,6.73
2019-04-03T17:28:21.135Z,7.03
2019-04-03T17:31:26.973Z,7.03
2019-04-03T17:34:32.785Z,7.03
2019-04-03T17:37:38.580Z,9.20
2019-04-03T17:40:44.379Z,14.43
2019-04-03T17:43:50.247Z,15.67
2019-04-03T17:46:57.996Z,18.10
2019-04-03T17:50:06.204Z,20.13
2019-04-03T17:53:11.834Z,23.47
2019-04-03T17:56:17.873Z,23.23
2019-04-03T17:59:23.653Z,21.03
2019-04-03T18:02:29.681Z,20.40
2019-04-03T18:05:35.511Z,15.07
2019-04-03T18:08:41.255Z,10.57
2019-04-03T18:11:47.638Z,15.57
2019-04-03T18:14:53.367Z,12.60
2019-04-03T18:17:59.179Z,25.67
2019-04-03T18:21:05.099Z,8.10
2019-04-03T18:24:10.896Z,4.53
2019-04-03T18:27:16.679Z,4.30
2019-04-03T18:30:22.693Z,3.90
2019-04-03T18:33:28.654Z,3.63
2019-04-03T18:36:34.362Z,3.80
2019-04-03T18:39:41.345Z,3.80
2019-04-03T18:42:49.498Z,3.20
2019-04-03T18:45:56.150Z,3.30
2019-04-03T18:49:01.951Z,3.53
2019-04-03T18:52:08.588Z,5.97
2019-04-03T18:55:14.811Z,4.23
2019-04-03T18:58:22.346Z,3.10
2019-04-03T19:01:28.001Z,3.07
2019-04-03T19:04:33.743Z,3.30
2019-04-03T19:07:39.421Z,3.13
2019-04-03T19:10:45.091Z,3.27
2019-04-03T19:13:50.763Z,2.60
2019-04-03T19:16:56.442Z,3.27
2019-04-03T19:20:10.305Z,3.30
2019-04-03T19:23:11.073Z,2.70
2019-04-03T19:26:18.198Z,3.43
2019-04-03T19:29:24.012Z,4.33
2019-04-03T19:32:29.796Z,4.40
2019-04-03T19:35:35.959Z,5.13
2019-04-03T19:38:41.619Z,5.03
2019-04-03T19:41:47.287Z,3.93
2019-04-03T19:44:52.954Z,7.67
2019-04-03T19:47:58.688Z,5.13
2019-04-03T19:51:04.423Z,3.90
2019-04-03T19:54:10.143Z,3.43
2019-04-03T19:57:15.925Z,3.00
2019-04-03T20:00:21.914Z,2.63
2019-04-03T20:03:27.754Z,2.57
2019-04-03T20:06:33.452Z,2.63
2019-04-03T20:09:39.196Z,3.43
2019-04-03T20:12:47.762Z,2.63
2019-04-03T20:15:54.482Z,2.40
2019-04-03T20:19:00.963Z,2.67
2019-04-03T20:22:07.065Z,2.20
2019-04-03T20:25:15.089Z,3.07
2019-04-03T20:28:23.346Z,2.87
2019-04-03T20:31:28.510Z,3.10
2019-04-03T20:34:34.194Z,3.13
2019-04-03T20:37:39.915Z,3.10
2019-04-03T20:40:45.627Z,2.80
2019-04-03T20:43:51.377Z,3.00
2019-04-03T20:46:57.058Z,2.70
2019-04-03T20:50:02.714Z,2.93
2019-04-03T20:53:08.373Z,3.00
2019-04-03T20:56:14.062Z,3.47
2019-04-03T20:59:19.800Z,3.13
2019-04-03T21:02:25.583Z,3.63
2019-04-03T21:05:31.429Z,2.77
2019-04-03T21:08:37.085Z,2.83
2019-04-03T21:11:42.868Z,2.70
2019-04-03T21:14:48.529Z,3.40
2019-04-03T21:17:54.198Z,3.90
2019-04-03T21:21:01.372Z,2.57
2019-04-03T21:24:07.420Z,4.23
2019-04-03T21:27:13.185Z,3.80
2019-04-03T21:30:19.058Z,4.17
2019-04-03T21:33:24.710Z,3.17
2019-04-03T21:36:30.763Z,3.00
2019-04-03T21:39:36.463Z,3.90
2019-04-03T21:42:42.276Z,2.80
2019-04-03T21:45:48.053Z,3.27
2019-04-03T21:48:53.738Z,3.60
2019-04-03T21:52:00.496Z,3.43
2019-04-03T21:55:07.408Z,3.40
2019-04-03T21:58:13.100Z,2.80
2019-04-03T22:01:22.956Z,3.50
2019-04-03T22:04:28.600Z,4.00
2019-04-03T22:07:34.613Z,3.93
2019-04-03T22:10:40.498Z,3.60
2019-04-03T22:13:46.534Z,4.10
2019-04-03T22:16:52.414Z,3.73
2019-04-03T22:19:59.211Z,3.30
2019-04-03T22:23:05.553Z,3.77
2019-04-03T22:26:11.426Z,4.10
2019-04-03T22:29:19.737Z,4.50
2019-04-03T22:32:25.371Z,4.43
2019-04-03T22:35:32.276Z,3.93
2019-04-03T22:38:38.743Z,3.77
2019-04-03T22:41:44.606Z,3.90
2019-04-03T22:44:50.524Z,4.00
2019-04-03T22:47:56.837Z,3.83
2019-04-03T22:51:02.891Z,4.30
2019-04-03T22:54:08.774Z,3.90
2019-04-03T22:57:14.703Z,4.03
2019-04-03T23:00:20.638Z,3.87
2019-04-03T23:03:26.650Z,3.93
2019-04-03T23:06:32.524Z,4.10
2019-04-03T23:09:39.675Z,4.50
2019-04-03T23:12:45.561Z,3.90
2019-04-03T23:15:51.455Z,3.40
2019-04-03T23:18:57.474Z,4.33
2019-04-03T23:22:03.383Z,4.43
2019-04-03T23:25:09.330Z,4.30
2019-04-03T23:28:15.330Z,4.50
2019-04-03T23:31:21.230Z,4.43
2019-04-03T23:34:27.180Z,4.77
2019-04-03T23:37:33.069Z,4.17
2019-04-03T23:40:38.983Z,4.77
2019-04-03T23:43:45.008Z,4.50
2019-04-03T23:46:51.157Z,4.60
2019-04-03T23:49:57.013Z,4.40
2019-04-03T23:53:02.989Z,4.80
2019-04-03T23:56:08.971Z,4.57
2019-04-03T23:59:14.844Z,4.97
